Time;durP1;ratioP1;P1;durP2;ratioP2;P2;SDS_P1;SDS_P2;PMS_P1;PMS_P2;Temp;Humidity;BMP_temperature;BMP_pressure;BME280_temperature;BME280_humidity;BME280_pressure;Samples;Min_cycle;Max_cycle;Signal;HPM_P1;HPM_P2
2022/05/08 06:44:49;;;;;;;;;;;10.80;99.90;;;;;;5094138;27;20437;-48
2022/05/08 06:47:16;;;;;;;17.30;5.93;;;10.70;99.90;;;;;;5073290;28;19921;-50
2022/05/08 06:49:43;;;;;;;18.20;6.63;;;10.70;99.90;;;;;;5074721;28;20445;-51
2022/05/08 06:52:10;;;;;;;21.08;6.22;;;10.90;99.90;;;;;;5074192;28;20029;-51
2022/05/08 06:54:37;;;;;;;26.77;7.15;;;11.00;99.90;;;;;;5067814;28;20432;-49
2022/05/08 06:57:04;;;;;;;21.17;6.57;;;11.10;99.30;;;;;;5067911;28;20483;-44
2022/05/08 07:02:16;;;;;;;21.33;5.75;;;11.20;99.30;;;;;;5048688;28;20496;-47
2022/05/08 07:04:43;;;;;;;19.80;5.95;;;11.30;98.80;;;;;;5066852;28;20037;-44
2022/05/08 07:07:10;;;;;;;20.17;5.18;;;11.40;98.30;;;;;;5032647;28;20033;-43
2022/05/08 07:09:37;;;;;;;17.73;5.45;;;11.30;98.50;;;;;;5065659;28;20032;-48
2022/05/08 07:12:05;;;;;;;19.05;5.55;;;11.30;98.70;;;;;;5069156;28;20521;-48
2022/05/08 07:14:32;;;;;;;20.60;5.55;;;11.40;98.80;;;;;;5063462;28;20049;-50
2022/05/08 07:17:00;;;;;;;16.70;5.50;;;11.30;98.60;;;;;;5068811;28;20045;-48
2022/05/08 07:19:27;;;;;;;19.38;5.40;;;11.30;98.50;;;;;;5068926;28;20376;-47
2022/05/08 07:21:54;;;;;;;18.77;5.45;;;11.20;98.60;;;;;;5069920;28;20053;-48
2022/05/08 07:24:20;;;;;;;24.45;5.70;;;11.20;98.20;;;;;;5068383;28;20068;-48
2022/05/08 07:26:47;;;;;;;19.83;5.28;;;11.20;98.10;;;;;;5068346;28;20043;-48
2022/05/08 07:29:15;;;;;;;20.38;5.22;;;11.20;98.10;;;;;;5068678;28;20035;-48
2022/05/08 07:31:43;;;;;;;19.58;5.38;;;11.20;98.20;;;;;;5068195;28;20079;-48
2022/05/08 07:36:56;;;;;;;24.45;4.97;;;11.20;97.70;;;;;;5068472;28;20056;-49
2022/05/08 07:39:22;;;;;;;17.83;4.82;;;11.30;97.70;;;;;;5051222;28;20068;-48
2022/05/08 07:41:49;;;;;;;18.90;4.45;;;11.30;97.20;;;;;;5068200;28;20132;-47
2022/05/08 07:44:17;;;;;;;18.25;4.32;;;11.40;96.70;;;;;;5050743;28;20044;-50
2022/05/08 07:46:44;;;;;;;19.25;5.13;;;11.50;96.20;;;;;;5049552;28;20037;-51
2022/05/08 07:49:11;;;;;;;17.15;4.45;;;11.50;96.60;;;;;;5069394;28;20094;-49
2022/05/08 07:51:38;;;;;;;15.95;4.38;;;11.40;96.10;;;;;;5066765;28;20039;-51
2022/05/08 07:54:04;;;;;;;18.92;4.47;;;11.40;96.00;;;;;;5065008;28;20090;-52
2022/05/08 07:56:31;;;;;;;18.08;4.50;;;11.40;96.20;;;;;;5051845;28;20040;-49
2022/05/08 07:58:58;;;;;;;18.90;4.38;;;11.40;96.40;;;;;;5035850;28;20132;-47
2022/05/08 08:01:25;;;;;;;21.75;5.20;;;11.50;96.30;;;;;;5036657;28;20073;-48
2022/05/08 08:04:12;;;;;;;17.13;5.03;;;11.40;96.50;;;;;;5039885;28;20045;-49
2022/05/08 08:06:39;;;;;;;23.45;5.22;;;11.50;96.40;;;;;;5051789;28;20087;-48
2022/05/08 08:09:06;;;;;;;20.83;5.00;;;11.50;96.60;;;;;;5053626;28;20041;-52
2022/05/08 08:11:32;;;;;;;24.52;5.47;;;11.50;97.10;;;;;;5054212;28;20427;-55
2022/05/08 08:13:59;;;;;;;21.92;4.57;;;11.60;96.70;;;;;;5055167;28;20041;-50
2022/05/08 08:16:26;;;;;;;16.88;4.88;;;11.70;96.30;;;;;;5054533;28;20040;-52
2022/05/08 08:18:54;;;;;;;20.00;4.38;;;11.80;96.50;;;;;;5054021;28;20143;-49
2022/05/08 08:21:21;;;;;;;20.15;4.72;;;11.80;96.60;;;;;;5054391;28;20072;-49
2022/05/08 08:23:48;;;;;;;21.25;4.32;;;11.80;96.20;;;;;;5054127;28;20495;-51
2022/05/08 08:26:14;;;;;;;20.10;4.45;;;11.80;96.10;;;;;;5053904;28;20036;-51
2022/05/08 08:28:41;;;;;;;21.27;4.35;;;11.80;96.40;;;;;;5035931;28;20554;-47
2022/05/08 08:31:08;;;;;;;25.60;5.25;;;11.90;96.20;;;;;;5053554;28;20502;-51
2022/05/08 08:33:35;;;;;;;20.13;5.03;;;12.00;96.30;;;;;;5055594;28;20033;-48
2022/05/08 08:36:01;;;;;;;20.90;4.90;;;12.00;96.30;;;;;;5054692;28;20092;-49
2022/05/08 08:38:29;;;;;;;17.60;5.25;;;12.10;96.30;;;;;;5053664;28;20041;-50
2022/05/08 08:40:56;;;;;;;19.08;4.75;;;12.10;96.00;;;;;;5036222;28;20091;-50
2022/05/08 08:43:22;;;;;;;27.70;5.35;;;12.20;96.10;;;;;;5053941;28;20099;-49
2022/05/08 08:48:35;;;;;;;22.33;5.15;;;12.40;96.00;;;;;;5044789;28;20151;-51
2022/05/08 08:51:02;;;;;;;25.30;5.60;;;12.40;95.60;;;;;;5048651;28;20079;-48
2022/05/08 08:53:28;;;;;;;24.10;5.35;;;12.50;95.50;;;;;;5051230;28;20029;-54
2022/05/08 08:55:56;;;;;;;19.77;4.85;;;12.50;95.70;;;;;;5051236;28;20060;-54
2022/05/08 08:58:23;;;;;;;24.27;5.32;;;12.50;95.50;;;;;;5045543;28;20033;-50
2022/05/08 09:00:49;;;;;;;18.10;4.43;;;12.70;95.10;;;;;;5053307;28;20507;-50
2022/05/08 09:03:16;;;;;;;17.88;4.55;;;12.70;95.10;;;;;;5051806;28;20132;-51
2022/05/08 09:05:43;;;;;;;23.48;4.53;;;12.80;95.00;;;;;;5051512;28;20454;-48
2022/05/08 09:08:10;;;;;;;23.25;4.82;;;12.70;95.20;;;;;;5034414;28;20040;-51
2022/05/08 09:10:36;;;;;;;18.20;4.40;;;12.80;95.30;;;;;;5047488;28;20114;-47
2022/05/08 09:13:03;;;;;;;21.90;4.43;;;13.00;95.50;;;;;;5049232;28;20115;-53
2022/05/08 09:15:36;;;;;;;24.00;4.70;;;13.10;95.20;;;;;;5043034;28;20507;-48
2022/05/08 09:18:02;;;;;;;18.83;4.55;;;13.20;94.80;;;;;;5047153;28;20060;-47
2022/05/08 09:20:29;;;;;;;22.75;4.35;;;13.30;94.10;;;;;;5047129;28;20115;-50
2022/05/08 09:22:56;;;;;;;17.20;3.78;;;13.30;93.80;;;;;;5045769;28;20033;-45
2022/05/08 09:25:23;;;;;;;18.38;4.60;;;13.20;93.60;;;;;;5043246;28;20566;-51
2022/05/08 09:27:50;;;;;;;16.58;4.07;;;13.20;94.30;;;;;;5048499;28;20041;-45
2022/05/08 09:30:16;;;;;;;19.42;4.68;;;13.30;94.10;;;;;;5044538;28;20037;-51
2022/05/08 09:32:49;;;;;;;19.02;4.10;;;13.40;93.80;;;;;;5043675;28;20485;-49
2022/05/08 09:35:16;;;;;;;17.48;4.00;;;13.50;93.90;;;;;;5043250;28;20053;-48
2022/05/08 09:37:45;;;;;;;20.98;4.18;;;13.70;93.20;;;;;;5045807;28;20040;-46
2022/05/08 09:40:12;;;;;;;17.48;5.03;;;13.80;92.70;;;;;;5049042;28;20051;-47
2022/05/08 09:42:39;;;;;;;16.38;4.05;;;13.80;92.70;;;;;;5041495;28;20447;-47
2022/05/08 09:45:07;;;;;;;17.58;3.95;;;13.80;92.60;;;;;;5047333;28;20045;-46
2022/05/08 09:47:42;;;;;;;15.75;3.80;;;13.90;92.60;;;;;;5044570;28;20038;-49
2022/05/08 09:50:08;;;;;;;15.82;4.40;;;14.00;92.50;;;;;;5044595;28;20056;-45
2022/05/08 09:52:35;;;;;;;20.15;4.65;;;14.10;92.50;;;;;;5044249;28;20082;-47
2022/05/08 09:55:02;;;;;;;17.10;4.70;;;14.20;92.60;;;;;;5045768;28;20123;-50
2022/05/08 09:57:30;;;;;;;14.98;4.25;;;14.30;91.20;;;;;;5056751;28;20063;-47
2022/05/08 09:59:58;;;;;;;16.33;4.10;;;14.30;90.90;;;;;;5044643;28;20044;-47
2022/05/08 10:02:25;;;;;;;23.10;4.72;;;14.20;91.40;;;;;;5047007;28;20044;-51
2022/05/08 10:04:53;;;;;;;19.17;4.20;;;14.10;91.90;;;;;;5046781;28;20041;-50
2022/05/08 10:07:19;;;;;;;18.10;3.80;;;14.00;92.40;;;;;;5050517;28;20427;-50
2022/05/08 10:15:20;;;;;;;14.23;3.53;;;14.10;90.90;;;;;;5045072;28;20064;-47
2022/05/08 10:17:47;;;;;;;15.02;3.60;;;14.00;91.50;;;;;;5048982;28;20041;-46
2022/05/08 10:20:14;;;;;;;13.68;3.75;;;14.20;90.00;;;;;;5052358;28;20045;-50
2022/05/08 10:22:40;;;;;;;21.77;4.72;;;14.20;88.50;;;;;;5053060;28;20041;-50
2022/05/08 10:25:07;;;;;;;15.13;3.75;;;14.10;89.70;;;;;;5053042;28;20041;-45
2022/05/08 10:27:34;;;;;;;16.52;3.97;;;14.10;89.10;;;;;;5033208;28;20618;-49
2022/05/08 10:30:03;;;;;;;18.42;4.28;;;14.20;91.40;;;;;;5050190;28;20037;-47
2022/05/08 10:32:33;;;;;;;18.80;5.35;;;14.20;92.00;;;;;;5046822;28;20045;-47
2022/05/08 10:35:00;;;;;;;16.40;3.97;;;14.30;91.70;;;;;;5048022;28;20111;-46
2022/05/08 10:37:28;;;;;;;12.68;3.95;;;14.40;90.60;;;;;;5042349;28;20124;-51
2022/05/08 10:39:55;;;;;;;15.80;3.35;;;14.50;89.00;;;;;;5028620;28;20041;-46
2022/05/08 10:42:21;;;;;;;14.50;3.20;;;14.60;87.30;;;;;;5052469;28;20045;-46
2022/05/08 10:44:48;;;;;;;11.45;3.80;;;14.60;87.20;;;;;;5046687;28;20051;-48
2022/05/08 10:47:21;;;;;;;12.63;3.70;;;14.60;87.50;;;;;;5051675;28;20047;-51
2022/05/08 10:49:47;;;;;;;17.08;3.60;;;14.60;87.20;;;;;;5052810;28;20118;-48
2022/05/08 10:52:14;;;;;;;18.27;4.07;;;14.50;87.10;;;;;;5046317;28;20046;-49
2022/05/08 10:54:41;;;;;;;14.13;3.22;;;14.50;87.20;;;;;;5049268;28;20055;-49
2022/05/08 10:57:07;;;;;;;15.48;3.35;;;14.50;85.90;;;;;;5029171;28;20478;-50
2022/05/08 10:59:34;;;;;;;12.82;2.70;;;14.60;83.30;;;;;;5052376;28;20056;-49
2022/05/08 11:02:01;;;;;;;12.80;3.88;;;14.80;84.60;;;;;;5048760;28;21555;-47
2022/05/08 11:04:28;;;;;;;14.65;3.55;;;14.80;87.40;;;;;;5045314;28;20029;-47
2022/05/08 11:06:55;;;;;;;15.30;3.88;;;14.90;85.60;;;;;;5048258;28;20135;-46
2022/05/08 16:12:25;;;;;;;10.23;2.65;;;19.50;64.70;;;;;;5101182;27;20349;-50
2022/05/08 16:23:28;;;;;;;7.45;1.98;;;19.80;61.30;;;;;;5030443;28;20423;-47
2022/05/08 16:25:55;;;;;;;8.90;2.38;;;20.00;61.60;;;;;;5065099;28;20056;-48
2022/05/08 16:28:22;;;;;;;8.70;2.63;;;20.00;62.90;;;;;;5090409;28;20466;-50
2022/05/08 16:30:49;;;;;;;8.90;2.35;;;20.10;62.80;;;;;;5088684;28;20149;-46
2022/05/08 16:33:16;;;;;;;6.97;2.00;;;20.20;62.20;;;;;;5090101;28;20047;-49
2022/05/08 16:35:43;;;;;;;7.45;2.72;;;20.30;61.00;;;;;;5089775;28;20106;-50
2022/05/08 16:38:10;;;;;;;7.50;2.40;;;20.20;62.40;;;;;;5090423;28;20048;-48
2022/05/08 16:40:36;;;;;;;9.45;2.33;;;20.40;63.20;;;;;;5090138;28;20036;-49
2022/05/08 16:43:05;;;;;;;8.35;2.67;;;20.50;61.90;;;;;;5090202;28;20037;-47
2022/05/08 16:45:31;;;;;;;13.30;3.17;;;20.70;62.60;;;;;;5089527;28;20040;-52
2022/05/08 16:47:58;;;;;;;8.77;2.65;;;21.00;61.90;;;;;;5088843;28;20368;-51
2022/05/08 16:50:25;;;;;;;8.70;2.90;;;20.80;61.10;;;;;;5089829;28;20048;-48
2022/05/08 16:52:52;;;;;;;9.13;2.97;;;20.60;61.70;;;;;;5089758;28;20049;-53
2022/05/08 16:55:19;;;;;;;11.95;3.35;;;20.60;61.70;;;;;;5089831;28;20123;-51
2022/05/08 16:57:45;;;;;;;10.40;2.78;;;20.60;62.10;;;;;;5089689;28;20044;-49
2022/05/08 17:00:13;;;;;;;8.27;2.60;;;20.60;61.80;;;;;;5089649;28;20040;-44
2022/05/08 17:02:40;;;;;;;12.82;3.10;;;20.80;61.50;;;;;;5088213;28;20502;-46
2022/05/08 17:05:07;;;;;;;10.73;2.90;;;21.00;61.50;;;;;;5089643;28;20032;-49
2022/05/08 17:07:34;;;;;;;11.73;2.70;;;21.10;60.80;;;;;;5089443;28;20048;-49
2022/05/08 17:10:01;;;;;;;12.32;3.50;;;20.60;61.20;;;;;;5089436;28;20541;-47
2022/05/08 17:12:28;;;;;;;10.82;3.70;;;20.70;63.40;;;;;;5089386;28;20036;-48
2022/05/08 17:14:55;;;;;;;13.18;2.97;;;20.70;63.30;;;;;;5089407;28;20068;-44
2022/05/08 17:17:21;;;;;;;9.35;2.85;;;20.90;63.30;;;;;;5087077;28;20051;-49
2022/05/08 17:19:48;;;;;;;12.95;3.60;;;20.70;63.10;;;;;;5082904;28;20036;-50
2022/05/08 17:22:15;;;;;;;10.65;2.95;;;20.60;63.10;;;;;;5084193;28;20055;-48
2022/05/08 17:24:42;;;;;;;13.65;3.47;;;20.70;64.00;;;;;;5075903;28;20054;-45
2022/05/08 17:29:54;;;;;;;;;;;20.80;63.30;;;;;;5075967;28;20045;-50
2022/05/08 17:32:21;;;;;;;11.70;3.42;;;20.90;63.90;;;;;;5075495;28;19927;-50
2022/05/08 17:34:49;;;;;;;9.88;3.03;;;21.20;63.60;;;;;;5075682;28;20041;-54
2022/05/08 17:37:16;;;;;;;7.70;3.15;;;21.20;63.70;;;;;;5075605;28;20438;-47
2022/05/08 17:39:42;;;;;;;11.75;3.55;;;21.20;63.50;;;;;;5075443;28;20119;-51
2022/05/08 17:42:09;;;;;;;16.45;3.78;;;21.40;63.80;;;;;;5075240;28;20480;-49
2022/05/08 17:44:36;;;;;;;11.63;3.33;;;21.40;63.40;;;;;;5075418;28;20048;-45
2022/05/08 17:47:03;;;;;;;9.30;3.22;;;21.50;64.20;;;;;;5075476;28;20144;-51
2022/05/08 17:49:30;;;;;;;11.55;3.30;;;21.60;61.60;;;;;;5075353;28;20044;-48
2022/05/08 17:51:56;;;;;;;8.35;2.90;;;21.70;61.20;;;;;;5075036;28;20044;-46
2022/05/08 17:54:23;;;;;;;10.02;2.85;;;21.80;60.70;;;;;;5075091;28;20098;-49
2022/05/08 17:56:50;;;;;;;8.48;3.00;;;21.70;60.70;;;;;;5075137;28;20064;-48
2022/05/08 17:59:16;;;;;;;12.02;3.38;;;21.50;60.70;;;;;;5075129;28;20053;-49
2022/05/08 18:01:43;;;;;;;9.07;2.80;;;21.40;61.10;;;;;;5075081;28;20062;-48
2022/05/08 18:06:55;;;;;;;10.75;3.17;;;21.00;62.20;;;;;;5071209;28;20503;-50
2022/05/08 18:09:22;;;;;;;11.70;2.75;;;20.90;63.00;;;;;;5073576;28;20067;-48
2022/05/08 18:11:49;;;;;;;8.18;2.65;;;21.00;62.10;;;;;;5073569;28;20075;-52
2022/05/08 18:14:16;;;;;;;13.82;2.80;;;20.80;61.90;;;;;;5074966;28;20044;-45
2022/05/08 18:16:42;;;;;;;9.20;2.90;;;20.70;62.30;;;;;;5074711;28;20491;-44
2022/05/08 18:19:09;;;;;;;49.17;4.75;;;20.60;62.40;;;;;;5074660;28;20041;-43
2022/05/08 18:21:36;;;;;;;11.55;3.40;;;20.50;62.50;;;;;;5073406;28;20039;-45
2022/05/08 18:24:03;;;;;;;12.27;3.30;;;20.20;61.60;;;;;;5074607;28;20487;-47
2022/05/08 18:26:31;;;;;;;11.10;2.80;;;19.80;62.70;;;;;;5074129;28;20036;-45
2022/05/08 18:29:03;;;;;;;9.93;2.75;;;19.30;63.50;;;;;;5073165;28;20075;-43
2022/05/08 18:31:32;;;;;;;10.40;2.80;;;18.70;64.70;;;;;;5074497;28;20047;-50
2022/05/08 18:33:59;;;;;;;9.48;2.97;;;18.00;67.30;;;;;;5073474;28;20098;-47
2022/05/08 18:36:25;;;;;;;10.27;2.65;;;17.50;68.50;;;;;;5074246;28;20110;-45
2022/05/08 18:38:55;;;;;;;10.50;2.75;;;17.20;69.50;;;;;;5074254;28;20432;-47
2022/05/08 18:41:22;;;;;;;12.52;3.10;;;16.90;70.70;;;;;;5074172;28;20047;-49
2022/05/08 18:43:49;;;;;;;11.27;2.83;;;16.60;71.80;;;;;;5073121;28;20044;-43
2022/05/08 18:46:15;;;;;;;12.30;2.95;;;16.40;72.50;;;;;;5074263;28;20040;-48
2022/05/08 18:48:43;;;;;;;13.80;3.30;;;16.20;73.40;;;;;;5074200;28;20041;-48
2022/05/08 18:51:10;;;;;;;12.57;3.25;;;16.00;74.00;;;;;;5074074;28;20041;-47
2022/05/08 18:53:37;;;;;;;9.57;2.80;;;15.80;74.60;;;;;;5073922;28;20037;-46
2022/05/08 18:56:05;;;;;;;13.20;3.92;;;15.70;75.40;;;;;;5073920;28;20040;-46
2022/05/08 18:58:31;;;;;;;9.35;3.05;;;15.60;75.70;;;;;;5074064;28;20401;-47
2022/05/08 19:00:58;;;;;;;13.55;2.88;;;15.50;76.50;;;;;;5074227;28;20395;-46
2022/05/08 19:03:25;;;;;;;12.98;3.15;;;15.40;77.10;;;;;;5073850;28;20060;-46
2022/05/08 19:05:55;;;;;;;14.55;3.00;;;15.30;77.80;;;;;;5073431;28;20063;-50
2022/05/08 19:08:21;;;;;;;9.85;2.80;;;15.20;78.70;;;;;;5072464;28;20475;-50
2022/05/08 19:10:48;;;;;;;12.60;3.15;;;15.00;77.90;;;;;;5073463;28;20076;-46
2022/05/08 19:13:15;;;;;;;13.23;3.30;;;14.80;78.60;;;;;;5072738;28;20044;-51
2022/05/08 19:15:42;;;;;;;9.35;2.40;;;14.70;79.70;;;;;;5073587;28;20571;-47
2022/05/08 19:18:08;;;;;;;11.82;3.00;;;14.60;80.00;;;;;;5073371;28;20399;-48
2022/05/08 19:20:36;;;;;;;14.90;4.25;;;14.50;80.60;;;;;;5072758;28;20143;-53
2022/05/08 19:23:03;;;;;;;12.18;2.90;;;14.30;81.00;;;;;;5073566;28;20127;-50
2022/05/08 19:25:30;;;;;;;11.15;3.20;;;14.20;81.30;;;;;;5072743;28;20044;-50
2022/05/08 19:27:56;;;;;;;14.18;4.00;;;14.20;81.60;;;;;;5073651;28;20131;-47
2022/05/08 19:30:24;;;;;;;10.55;3.65;;;14.00;81.70;;;;;;5073466;28;20462;-53
2022/05/08 19:38:22;;;;;;;10.50;2.85;;;13.80;82.30;;;;;;5073195;28;20048;-48
2022/05/08 19:40:48;;;;;;;11.45;2.80;;;13.70;82.80;;;;;;5073204;28;20045;-50
2022/05/08 19:43:15;;;;;;;10.68;2.70;;;13.60;83.40;;;;;;5073125;28;20053;-52
2022/05/08 19:45:42;;;;;;;11.73;3.35;;;13.60;83.60;;;;;;5073053;28;20044;-53
2022/05/08 19:48:09;;;;;;;11.48;2.83;;;13.50;84.10;;;;;;5072016;28;20051;-47
2022/05/08 19:50:36;;;;;;;10.73;2.80;;;13.40;84.90;;;;;;5073255;28;20044;-50
2022/05/08 19:53:02;;;;;;;11.52;2.90;;;13.30;85.40;;;;;;5072960;28;20060;-47
2022/05/08 19:55:29;;;;;;;9.10;2.45;;;13.30;86.00;;;;;;5071722;28;20060;-46
2022/05/08 19:57:57;;;;;;;7.70;2.67;;;13.20;85.90;;;;;;5071503;28;20041;-50
2022/05/08 20:00:24;;;;;;;12.32;2.60;;;13.10;86.80;;;;;;5073082;28;20040;-51
2022/05/08 20:02:52;;;;;;;16.58;2.88;;;13.00;87.50;;;;;;5071902;28;20053;-47
2022/05/08 20:05:19;;;;;;;7.45;2.83;;;13.00;87.70;;;;;;5072401;28;20110;-46
2022/05/08 20:07:46;;;;;;;11.13;3.58;;;12.90;88.60;;;;;;5072887;28;20105;-48
2022/05/08 20:10:13;;;;;;;16.83;3.35;;;12.90;88.60;;;;;;5072728;28;20044;-48
2022/05/08 20:12:40;;;;;;;9.43;2.90;;;12.90;88.80;;;;;;5071599;28;20044;-51
2022/05/08 20:15:06;;;;;;;11.95;3.25;;;12.80;89.10;;;;;;5070883;28;20071;-54
2022/05/08 20:17:34;;;;;;;12.13;3.20;;;12.80;89.30;;;;;;5072797;28;20445;-51
2022/05/08 20:22:02;;;;;;;13.40;3.38;;;12.70;89.60;;;;;;5072617;28;20045;-47
2022/05/08 20:22:50;;;;;;;10.40;3.33;;;12.70;89.90;;;;;;5072648;28;20037;-47
2022/05/08 20:25:16;;;;;;;13.32;3.58;;;12.60;90.00;;;;;;5071803;28;20048;-48
2022/05/08 20:27:43;;;;;;;14.25;3.72;;;12.60;90.40;;;;;;5073211;28;20044;-47
2022/05/08 20:30:10;;;;;;;11.73;3.78;;;12.50;90.70;;;;;;5070267;28;20044;-48
2022/05/08 20:32:37;;;;;;;11.82;3.90;;;12.40;91.10;;;;;;5071078;28;20045;-46
2022/05/08 20:35:05;;;;;;;11.18;3.85;;;12.40;91.00;;;;;;5072072;28;20032;-50
2022/05/08 20:37:32;;;;;;;10.07;3.22;;;12.40;91.20;;;;;;5072757;28;20040;-48
2022/05/08 20:39:59;;;;;;;11.68;3.50;;;12.30;91.30;;;;;;5072340;28;20120;-46
2022/05/08 20:42:30;;;;;;;11.88;3.75;;;12.30;91.70;;;;;;5072226;28;20036;-49
2022/05/08 20:44:57;;;;;;;13.57;3.75;;;12.20;91.80;;;;;;5070231;28;20668;-49
2022/05/08 20:47:24;;;;;;;15.20;4.55;;;12.20;92.10;;;;;;5071328;28;20067;-49
2022/05/08 20:49:52;;;;;;;11.55;3.90;;;12.20;92.20;;;;;;5072307;28;20044;-46
2022/05/08 20:52:20;;;;;;;12.40;3.88;;;12.10;92.40;;;;;;5065146;28;20420;-47
2022/05/08 20:54:48;;;;;;;11.85;4.38;;;12.00;92.60;;;;;;5071708;28;20487;-49
2022/05/08 20:57:14;;;;;;;15.70;4.38;;;12.00;92.80;;;;;;5072758;28;20045;-51
2022/05/08 20:59:41;;;;;;;16.90;4.07;;;12.00;93.00;;;;;;5075733;28;20055;-48
2022/05/08 21:02:08;;;;;;;17.55;4.32;;;11.90;93.00;;;;;;5075473;28;20046;-49
2022/05/08 21:04:35;;;;;;;11.38;3.50;;;11.90;93.30;;;;;;5075299;28;20163;-49
2022/05/08 21:09:47;;;;;;;10.93;3.88;;;11.80;93.70;;;;;;5073357;28;20048;-48
2022/05/08 21:12:14;;;;;;;13.30;4.93;;;11.80;93.90;;;;;;5075562;28;20040;-48
2022/05/08 21:14:41;;;;;;;10.77;3.88;;;11.70;94.10;;;;;;5073867;28;20461;-53
2022/05/08 21:17:08;;;;;;;14.02;5.05;;;11.70;94.20;;;;;;5075558;28;20082;-50
2022/05/08 21:19:34;;;;;;;11.80;4.20;;;11.60;94.40;;;;;;5075161;28;20468;-52
2022/05/08 21:22:01;;;;;;;12.65;4.60;;;11.60;94.50;;;;;;5075264;28;20102;-49
2022/05/08 21:24:28;;;;;;;11.95;4.30;;;11.50;94.70;;;;;;5075392;28;20468;-51
2022/05/08 21:26:55;;;;;;;15.10;4.75;;;11.50;94.90;;;;;;5057609;28;20040;-52
2022/05/08 21:29:23;;;;;;;13.43;4.30;;;11.40;95.00;;;;;;5075619;28;20045;-49
2022/05/08 21:31:50;;;;;;;14.13;5.00;;;11.30;95.30;;;;;;5075489;28;20386;-48
2022/05/08 21:34:18;;;;;;;13.70;5.82;;;11.30;95.50;;;;;;5074953;28;20055;-49
2022/05/08 21:36:45;;;;;;;12.98;5.60;;;11.30;95.60;;;;;;5075505;28;20421;-49
2022/05/08 21:39:11;;;;;;;15.00;5.45;;;11.30;95.60;;;;;;5075350;28;20048;-54
2022/05/08 21:41:40;;;;;;;15.57;6.03;;;11.30;95.70;;;;;;5072037;28;20521;-51
2022/05/08 21:44:06;;;;;;;14.85;5.38;;;11.20;96.00;;;;;;5074174;28;20036;-48
2022/05/08 21:46:33;;;;;;;14.77;5.35;;;11.20;95.90;;;;;;5074918;28;20044;-51
2022/05/08 21:49:01;;;;;;;20.50;5.78;;;11.20;96.00;;;;;;5074778;28;20134;-48
2022/05/08 21:51:28;;;;;;;12.25;4.13;;;11.20;96.00;;;;;;5075253;28;20044;-47
2022/05/08 21:53:54;;;;;;;16.15;5.00;;;11.20;96.10;;;;;;5072091;28;20113;-49
2022/05/08 21:56:22;;;;;;;13.35;4.40;;;11.10;96.10;;;;;;5075132;28;20064;-47
2022/05/08 21:58:49;;;;;;;14.52;4.25;;;11.00;96.20;;;;;;5074945;28;20032;-52
2022/05/08 22:01:15;;;;;;;15.05;4.72;;;11.00;96.30;;;;;;5074987;28;20060;-48
2022/05/08 22:03:42;;;;;;;12.43;4.15;;;11.00;96.50;;;;;;5072264;28;20462;-48
2022/05/08 22:06:10;;;;;;;8.55;3.63;;;11.00;96.40;;;;;;5062165;28;20033;-49
2022/05/08 22:08:37;;;;;;;9.38;3.60;;;10.90;96.50;;;;;;5073417;28;20491;-47
2022/05/08 22:11:04;;;;;;;13.13;3.97;;;10.90;96.60;;;;;;5074396;28;20083;-50
